sensor_id;sensor_type;location;lat;lon;timestamp;temperature;humidity
15095;DHT22;7648;52.264;9.632;2023-02-15T00:03:19;3.60;99.90
15095;DHT22;7648;52.264;9.632;2023-02-15T00:07:20;3.70;99.90
15095;DHT22;7648;52.264;9.632;2023-02-15T00:11:24;3.70;99.90
15095;DHT22;7648;52.264;9.632;2023-02-15T00:15:54;3.80;99.90
15095;DHT22;7648;52.264;9.632;2023-02-15T00:20:01;3.80;99.90
15095;DHT22;7648;52.264;9.632;2023-02-15T00:24:04;3.90;99.90
15095;DHT22;7648;52.264;9.632;2023-02-15T00:28:06;3.90;99.90
15095;DHT22;7648;52.264;9.632;2023-02-15T00:32:10;3.90;99.90
15095;DHT22;7648;52.264;9.632;2023-02-15T00:36:13;3.90;99.90
15095;DHT22;7648;52.264;9.632;2023-02-15T00:40:15;4.00;99.90
15095;DHT22;7648;52.264;9.632;2023-02-15T00:44:17;4.10;99.90
15095;DHT22;7648;52.264;9.632;2023-02-15T00:48:20;4.20;99.90
15095;DHT22;7648;52.264;9.632;2023-02-15T00:52:22;4.30;99.90
15095;DHT22;7648;52.264;9.632;2023-02-15T00:56:24;4.40;99.90
15095;DHT22;7648;52.264;9.632;2023-02-15T01:00:28;4.40;99.90
15095;DHT22;7648;52.264;9.632;2023-02-15T01:04:32;4.50;99.90
15095;DHT22;7648;52.264;9.632;2023-02-15T01:08:34;4.50;99.90
15095;DHT22;7648;52.264;9.632;2023-02-15T01:12:36;4.40;99.90
15095;DHT22;7648;52.264;9.632;2023-02-15T01:16:40;4.30;99.90
15095;DHT22;7648;52.264;9.632;2023-02-15T01:20:43;4.20;99.90
15095;DHT22;7648;52.264;9.632;2023-02-15T01:24:48;4.10;99.90
15095;DHT22;7648;52.264;9.632;2023-02-15T01:28:50;4.00;99.90
15095;DHT22;7648;52.264;9.632;2023-02-15T01:32:52;3.80;99.90
15095;DHT22;7648;52.264;9.632;2023-02-15T01:36:55;3.70;99.90
15095;DHT22;7648;52.264;9.632;2023-02-15T01:40:57;3.50;99.90
15095;DHT22;7648;52.264;9.632;2023-02-15T01:45:23;3.30;99.90
15095;DHT22;7648;52.264;9.632;2023-02-15T01:49:26;3.20;99.90
15095;DHT22;7648;52.264;9.632;2023-02-15T01:53:33;3.10;99.90
15095;DHT22;7648;52.264;9.632;2023-02-15T01:57:37;3.10;99.90
15095;DHT22;7648;52.264;9.632;2023-02-15T02:01:40;3.00;99.90
15095;DHT22;7648;52.264;9.632;2023-02-15T02:05:42;3.00;99.90
15095;DHT22;7648;52.264;9.632;2023-02-15T02:09:48;2.80;99.90
15095;DHT22;7648;52.264;9.632;2023-02-15T02:13:51;2.80;99.90
15095;DHT22;7648;52.264;9.632;2023-02-15T02:18:03;2.70;99.90
15095;DHT22;7648;52.264;9.632;2023-02-15T02:22:32;2.70;99.90
15095;DHT22;7648;52.264;9.632;2023-02-15T02:27:05;2.60;99.90
15095;DHT22;7648;52.264;9.632;2023-02-15T02:31:44;2.60;99.90
15095;DHT22;7648;52.264;9.632;2023-02-15T02:35:59;2.50;99.90
15095;DHT22;7648;52.264;9.632;2023-02-15T02:40:05;2.50;99.90
15095;DHT22;7648;52.264;9.632;2023-02-15T02:44:12;2.40;99.90
15095;DHT22;7648;52.264;9.632;2023-02-15T02:48:20;2.40;99.90
15095;DHT22;7648;52.264;9.632;2023-02-15T02:52:49;2.30;99.90
15095;DHT22;7648;52.264;9.632;2023-02-15T02:56:53;2.30;99.90
15095;DHT22;7648;52.264;9.632;2023-02-15T03:01:02;2.30;99.90
15095;DHT22;7648;52.264;9.632;2023-02-15T03:05:11;2.20;99.90
15095;DHT22;7648;52.264;9.632;2023-02-15T03:09:21;2.10;99.90
15095;DHT22;7648;52.264;9.632;2023-02-15T03:13:35;2.10;99.90
15095;DHT22;7648;52.264;9.632;2023-02-15T03:17:43;2.00;99.90
15095;DHT22;7648;52.264;9.632;2023-02-15T03:21:48;2.00;99.90
15095;DHT22;7648;52.264;9.632;2023-02-15T03:26:01;1.90;99.90
15095;DHT22;7648;52.264;9.632;2023-02-15T03:30:08;1.80;99.90
15095;DHT22;7648;52.264;9.632;2023-02-15T03:34:12;1.70;99.90
15095;DHT22;7648;52.264;9.632;2023-02-15T03:38:19;1.70;99.90
15095;DHT22;7648;52.264;9.632;2023-02-15T03:42:27;1.60;99.90
15095;DHT22;7648;52.264;9.632;2023-02-15T03:46:33;1.50;99.90
15095;DHT22;7648;52.264;9.632;2023-02-15T03:50:38;1.40;99.90
15095;DHT22;7648;52.264;9.632;2023-02-15T03:54:58;1.30;99.90
15095;DHT22;7648;52.264;9.632;2023-02-15T03:59:02;1.30;99.90
15095;DHT22;7648;52.264;9.632;2023-02-15T04:03:23;1.30;99.90
15095;DHT22;7648;52.264;9.632;2023-02-15T04:07:27;1.30;99.90
15095;DHT22;7648;52.264;9.632;2023-02-15T04:11:30;1.30;99.90
15095;DHT22;7648;52.264;9.632;2023-02-15T04:15:33;1.30;99.90
15095;DHT22;7648;52.264;9.632;2023-02-15T04:20:01;1.30;99.90
15095;DHT22;7648;52.264;9.632;2023-02-15T04:24:20;1.30;99.90
15095;DHT22;7648;52.264;9.632;2023-02-15T04:28:39;1.20;99.90
15095;DHT22;7648;52.264;9.632;2023-02-15T04:32:43;1.10;99.90
15095;DHT22;7648;52.264;9.632;2023-02-15T04:36:44;1.10;99.90
15095;DHT22;7648;52.264;9.632;2023-02-15T04:40:49;1.10;99.90
15095;DHT22;7648;52.264;9.632;2023-02-15T04:44:51;1.20;99.90
15095;DHT22;7648;52.264;9.632;2023-02-15T04:48:54;1.20;99.90
15095;DHT22;7648;52.264;9.632;2023-02-15T04:52:56;1.20;99.90
15095;DHT22;7648;52.264;9.632;2023-02-15T04:56:58;1.10;99.90
15095;DHT22;7648;52.264;9.632;2023-02-15T05:01:00;1.10;99.90
15095;DHT22;7648;52.264;9.632;2023-02-15T05:05:04;1.10;99.90
15095;DHT22;7648;52.264;9.632;2023-02-15T05:09:05;1.10;99.90
15095;DHT22;7648;52.264;9.632;2023-02-15T05:13:07;1.10;99.90
15095;DHT22;7648;52.264;9.632;2023-02-15T05:17:09;1.00;99.90
15095;DHT22;7648;52.264;9.632;2023-02-15T05:21:12;1.00;99.90
15095;DHT22;7648;52.264;9.632;2023-02-15T05:25:16;1.00;99.90
15095;DHT22;7648;52.264;9.632;2023-02-15T05:29:36;1.00;99.90
15095;DHT22;7648;52.264;9.632;2023-02-15T05:33:38;0.90;99.90
15095;DHT22;7648;52.264;9.632;2023-02-15T05:37:42;0.80;99.90
15095;DHT22;7648;52.264;9.632;2023-02-15T05:41:44;0.80;99.90
15095;DHT22;7648;52.264;9.632;2023-02-15T05:45:45;0.80;99.90
15095;DHT22;7648;52.264;9.632;2023-02-15T05:49:47;0.80;99.90
15095;DHT22;7648;52.264;9.632;2023-02-15T05:53:50;0.80;99.90
15095;DHT22;7648;52.264;9.632;2023-02-15T05:57:52;0.70;99.90
15095;DHT22;7648;52.264;9.632;2023-02-15T06:01:54;0.60;99.90
15095;DHT22;7648;52.264;9.632;2023-02-15T06:05:56;0.60;99.90
15095;DHT22;7648;52.264;9.632;2023-02-15T06:09:59;0.60;99.90
15095;DHT22;7648;52.264;9.632;2023-02-15T06:14:01;0.50;99.90
15095;DHT22;7648;52.264;9.632;2023-02-15T06:18:03;0.60;99.90
15095;DHT22;7648;52.264;9.632;2023-02-15T06:22:05;0.50;99.90
15095;DHT22;7648;52.264;9.632;2023-02-15T06:26:09;0.60;99.90
15095;DHT22;7648;52.264;9.632;2023-02-15T06:30:12;0.60;99.90
15095;DHT22;7648;52.264;9.632;2023-02-15T06:34:14;0.60;99.90
15095;DHT22;7648;52.264;9.632;2023-02-15T06:38:16;0.60;99.90
15095;DHT22;7648;52.264;9.632;2023-02-15T06:42:20;0.60;99.90
15095;DHT22;7648;52.264;9.632;2023-02-15T06:46:23;0.60;99.90
15095;DHT22;7648;52.264;9.632;2023-02-15T06:50:24;0.60;99.90
15095;DHT22;7648;52.264;9.632;2023-02-15T06:54:26;0.60;99.90
15095;DHT22;7648;52.264;9.632;2023-02-15T06:58:29;0.60;99.90
15095;DHT22;7648;52.264;9.632;2023-02-15T07:02:31;0.70;99.90
15095;DHT22;7648;52.264;9.632;2023-02-15T07:06:34;0.70;99.90
15095;DHT22;7648;52.264;9.632;2023-02-15T07:10:36;0.60;99.90
15095;DHT22;7648;52.264;9.632;2023-02-15T07:14:39;0.60;99.90
15095;DHT22;7648;52.264;9.632;2023-02-15T07:18:42;0.60;99.90
15095;DHT22;7648;52.264;9.632;2023-02-15T07:22:44;0.60;99.90
15095;DHT22;7648;52.264;9.632;2023-02-15T07:26:45;0.60;99.90
15095;DHT22;7648;52.264;9.632;2023-02-15T07:30:49;0.70;99.90
15095;DHT22;7648;52.264;9.632;2023-02-15T07:34:50;0.80;99.90
15095;DHT22;7648;52.264;9.632;2023-02-15T07:38:52;0.90;99.90
15095;DHT22;7648;52.264;9.632;2023-02-15T07:42:57;1.00;99.90
15095;DHT22;7648;52.264;9.632;2023-02-15T07:47:01;1.10;99.90
15095;DHT22;7648;52.264;9.632;2023-02-15T07:51:05;1.10;99.90
15095;DHT22;7648;52.264;9.632;2023-02-15T07:55:07;1.20;99.90
15095;DHT22;7648;52.264;9.632;2023-02-15T07:59:13;1.30;99.90
15095;DHT22;7648;52.264;9.632;2023-02-15T08:03:16;1.40;99.90
15095;DHT22;7648;52.264;9.632;2023-02-15T08:07:18;1.50;99.90
15095;DHT22;7648;52.264;9.632;2023-02-15T08:11:21;1.60;99.90
15095;DHT22;7648;52.264;9.632;2023-02-15T08:15:34;1.70;99.90
15095;DHT22;7648;52.264;9.632;2023-02-15T08:19:37;1.80;99.90
15095;DHT22;7648;52.264;9.632;2023-02-15T08:23:39;1.90;99.90
15095;DHT22;7648;52.264;9.632;2023-02-15T08:27:41;2.00;99.90
15095;DHT22;7648;52.264;9.632;2023-02-15T08:31:43;2.20;99.90
15095;DHT22;7648;52.264;9.632;2023-02-15T08:35:46;2.40;99.90
15095;DHT22;7648;52.264;9.632;2023-02-15T08:39:48;2.70;99.90
15095;DHT22;7648;52.264;9.632;2023-02-15T08:43:52;2.90;99.90
15095;DHT22;7648;52.264;9.632;2023-02-15T08:47:55;3.10;99.90
15095;DHT22;7648;52.264;9.632;2023-02-15T08:51:58;3.20;99.90
15095;DHT22;7648;52.264;9.632;2023-02-15T08:56:01;3.40;99.90
15095;DHT22;7648;52.264;9.632;2023-02-15T09:00:03;3.50;99.90
15095;DHT22;7648;52.264;9.632;2023-02-15T09:04:07;3.60;99.90
15095;DHT22;7648;52.264;9.632;2023-02-15T09:08:11;3.70;99.90
15095;DHT22;7648;52.264;9.632;2023-02-15T09:12:13;3.80;99.90
15095;DHT22;7648;52.264;9.632;2023-02-15T09:16:15;3.90;99.90
15095;DHT22;7648;52.264;9.632;2023-02-15T09:20:18;4.00;99.90
15095;DHT22;7648;52.264;9.632;2023-02-15T09:24:21;4.10;99.90
15095;DHT22;7648;52.264;9.632;2023-02-15T09:28:23;4.20;99.90
15095;DHT22;7648;52.264;9.632;2023-02-15T09:32:25;4.30;99.90
15095;DHT22;7648;52.264;9.632;2023-02-15T09:36:30;4.40;99.90
15095;DHT22;7648;52.264;9.632;2023-02-15T09:40:39;4.50;99.90
15095;DHT22;7648;52.264;9.632;2023-02-15T09:45:13;4.70;99.90
15095;DHT22;7648;52.264;9.632;2023-02-15T09:49:23;4.80;99.90
15095;DHT22;7648;52.264;9.632;2023-02-15T09:53:40;4.90;99.90
15095;DHT22;7648;52.264;9.632;2023-02-15T09:57:55;5.00;99.90
15095;DHT22;7648;52.264;9.632;2023-02-15T10:02:11;5.20;99.90
15095;DHT22;7648;52.264;9.632;2023-02-15T10:06:29;5.30;99.90
15095;DHT22;7648;52.264;9.632;2023-02-15T10:10:39;5.40;99.90
15095;DHT22;7648;52.264;9.632;2023-02-15T10:15:14;5.40;99.90
15095;DHT22;7648;52.264;9.632;2023-02-15T10:19:26;5.50;99.90
15095;DHT22;7648;52.264;9.632;2023-02-15T10:23:50;5.80;99.90
15095;DHT22;7648;52.264;9.632;2023-02-15T10:27:54;6.00;99.90
15095;DHT22;7648;52.264;9.632;2023-02-15T10:32:05;6.00;99.90
15095;DHT22;7648;52.264;9.632;2023-02-15T10:36:26;6.00;99.90
15095;DHT22;7648;52.264;9.632;2023-02-15T10:40:40;6.40;99.90
15095;DHT22;7648;52.264;9.632;2023-02-15T10:44:55;6.70;99.90
15095;DHT22;7648;52.264;9.632;2023-02-15T10:49:18;6.70;99.90
15095;DHT22;7648;52.264;9.632;2023-02-15T10:53:37;6.50;99.90
15095;DHT22;7648;52.264;9.632;2023-02-15T10:57:46;6.70;99.90
15095;DHT22;7648;52.264;9.632;2023-02-15T11:01:54;8.30;99.90
15095;DHT22;7648;52.264;9.632;2023-02-15T11:06:03;9.60;99.90
15095;DHT22;7648;52.264;9.632;2023-02-15T11:10:17;10.20;99.90
15095;DHT22;7648;52.264;9.632;2023-02-15T11:14:34;10.70;99.90
15095;DHT22;7648;52.264;9.632;2023-02-15T11:18:40;11.20;99.90
15095;DHT22;7648;52.264;9.632;2023-02-15T11:22:48;11.20;99.90
15095;DHT22;7648;52.264;9.632;2023-02-15T11:26:54;10.90;99.90
15095;DHT22;7648;52.264;9.632;2023-02-15T11:31:02;10.60;99.90
15095;DHT22;7648;52.264;9.632;2023-02-15T11:35:15;10.30;99.90
15095;DHT22;7648;52.264;9.632;2023-02-15T11:39:21;10.10;99.90
15095;DHT22;7648;52.264;9.632;2023-02-15T11:43:29;10.10;99.90
15095;DHT22;7648;52.264;9.632;2023-02-15T11:47:32;10.00;99.90
15095;DHT22;7648;52.264;9.632;2023-02-15T11:51:35;9.80;99.90
15095;DHT22;7648;52.264;9.632;2023-02-15T11:55:39;9.90;99.90
15095;DHT22;7648;52.264;9.632;2023-02-15T11:59:44;9.90;99.90
15095;DHT22;7648;52.264;9.632;2023-02-15T12:03:48;9.90;99.90
15095;DHT22;7648;52.264;9.632;2023-02-15T12:07:54;10.00;99.90
15095;DHT22;7648;52.264;9.632;2023-02-15T12:12:23;9.90;99.90
15095;DHT22;7648;52.264;9.632;2023-02-15T12:16:25;10.00;99.90
15095;DHT22;7648;52.264;9.632;2023-02-15T12:20:32;10.10;99.90
15095;DHT22;7648;52.264;9.632;2023-02-15T12:24:37;10.10;99.90
15095;DHT22;7648;52.264;9.632;2023-02-15T12:28:42;10.20;99.90
15095;DHT22;7648;52.264;9.632;2023-02-15T12:32:48;10.20;99.90
15095;DHT22;7648;52.264;9.632;2023-02-15T12:36:53;10.00;99.90
15095;DHT22;7648;52.264;9.632;2023-02-15T12:41:01;9.90;99.90
15095;DHT22;7648;52.264;9.632;2023-02-15T12:45:21;9.90;99.90
15095;DHT22;7648;52.264;9.632;2023-02-15T12:49:24;9.80;99.90
15095;DHT22;7648;52.264;9.632;2023-02-15T12:53:31;9.80;99.90
15095;DHT22;7648;52.264;9.632;2023-02-15T12:57:33;9.70;99.90
15095;DHT22;7648;52.264;9.632;2023-02-15T13:01:37;9.60;99.90
15095;DHT22;7648;52.264;9.632;2023-02-15T13:05:40;9.60;99.90
15095;DHT22;7648;52.264;9.632;2023-02-15T13:09:42;9.60;99.90
15095;DHT22;7648;52.264;9.632;2023-02-15T13:13:51;9.50;99.90
15095;DHT22;7648;52.264;9.632;2023-02-15T13:17:55;9.60;99.90
15095;DHT22;7648;52.264;9.632;2023-02-15T13:21:58;9.60;99.90
15095;DHT22;7648;52.264;9.632;2023-02-15T13:26:11;9.60;99.90
15095;DHT22;7648;52.264;9.632;2023-02-15T13:30:22;9.40;99.90
15095;DHT22;7648;52.264;9.632;2023-02-15T13:34:29;9.40;99.90
15095;DHT22;7648;52.264;9.632;2023-02-15T13:38:49;9.30;99.90
15095;DHT22;7648;52.264;9.632;2023-02-15T13:42:56;9.30;99.90
15095;DHT22;7648;52.264;9.632;2023-02-15T13:47:10;9.30;99.90
15095;DHT22;7648;52.264;9.632;2023-02-15T13:51:32;9.40;99.90
15095;DHT22;7648;52.264;9.632;2023-02-15T13:55:37;9.40;99.90
15095;DHT22;7648;52.264;9.632;2023-02-15T13:59:58;9.30;99.90
15095;DHT22;7648;52.264;9.632;2023-02-15T14:08:51;9.30;99.90
15095;DHT22;7648;52.264;9.632;2023-02-15T14:13:14;9.30;99.90
15095;DHT22;7648;52.264;9.632;2023-02-15T14:17:27;9.20;99.90
15095;DHT22;7648;52.264;9.632;2023-02-15T14:21:32;9.20;99.90
15095;DHT22;7648;52.264;9.632;2023-02-15T14:25:41;9.30;99.90
15095;DHT22;7648;52.264;9.632;2023-02-15T14:29:48;9.30;99.90
15095;DHT22;7648;52.264;9.632;2023-02-15T14:39:23;9.40;99.90
15095;DHT22;7648;52.264;9.632;2023-02-15T14:43:51;9.50;99.90
15095;DHT22;7648;52.264;9.632;2023-02-15T14:48:02;9.50;99.90
15095;DHT22;7648;52.264;9.632;2023-02-15T14:52:06;9.40;99.90
15095;DHT22;7648;52.264;9.632;2023-02-15T14:56:22;9.30;99.90
15095;DHT22;7648;52.264;9.632;2023-02-15T15:00:39;9.30;99.90
15095;DHT22;7648;52.264;9.632;2023-02-15T15:04:44;9.30;99.90
15095;DHT22;7648;52.264;9.632;2023-02-15T15:08:55;9.30;99.90
15095;DHT22;7648;52.264;9.632;2023-02-15T15:13:37;9.30;99.90
15095;DHT22;7648;52.264;9.632;2023-02-15T15:18:00;9.40;99.90
15095;DHT22;7648;52.264;9.632;2023-02-15T15:22:03;9.50;99.90
15095;DHT22;7648;52.264;9.632;2023-02-15T15:26:28;9.60;99.90
15095;DHT22;7648;52.264;9.632;2023-02-15T15:31:01;9.80;99.90
15095;DHT22;7648;52.264;9.632;2023-02-15T15:35:17;9.90;99.90
15095;DHT22;7648;52.264;9.632;2023-02-15T15:39:43;9.90;99.90
15095;DHT22;7648;52.264;9.632;2023-02-15T15:44:25;9.80;99.90
15095;DHT22;7648;52.264;9.632;2023-02-15T15:48:33;9.60;99.90
15095;DHT22;7648;52.264;9.632;2023-02-15T15:52:36;9.30;99.90
15095;DHT22;7648;52.264;9.632;2023-02-15T15:56:49;9.20;99.90
15095;DHT22;7648;52.264;9.632;2023-02-15T16:00:54;9.00;99.90
15095;DHT22;7648;52.264;9.632;2023-02-15T16:05:06;8.90;99.90
15095;DHT22;7648;52.264;9.632;2023-02-15T16:09:17;8.60;99.90
15095;DHT22;7648;52.264;9.632;2023-02-15T16:13:20;8.40;99.90
15095;DHT22;7648;52.264;9.632;2023-02-15T16:17:24;8.20;99.90
15095;DHT22;7648;52.264;9.632;2023-02-15T16:21:29;8.10;99.90
15095;DHT22;7648;52.264;9.632;2023-02-15T16:25:40;8.00;99.90
15095;DHT22;7648;52.264;9.632;2023-02-15T16:29:47;7.80;99.90
15095;DHT22;7648;52.264;9.632;2023-02-15T16:33:52;7.50;99.90
15095;DHT22;7648;52.264;9.632;2023-02-15T16:37:54;7.40;99.90
15095;DHT22;7648;52.264;9.632;2023-02-15T16:41:58;7.30;99.90
15095;DHT22;7648;52.264;9.632;2023-02-15T16:46:04;7.20;99.90
15095;DHT22;7648;52.264;9.632;2023-02-15T16:50:39;7.10;99.90
15095;DHT22;7648;52.264;9.632;2023-02-15T16:55:22;7.00;99.90
15095;DHT22;7648;52.264;9.632;2023-02-15T16:59:38;6.80;99.90
15095;DHT22;7648;52.264;9.632;2023-02-15T17:03:42;6.70;99.90
15095;DHT22;7648;52.264;9.632;2023-02-15T17:07:50;6.70;99.90
15095;DHT22;7648;52.264;9.632;2023-02-15T17:11:52;6.60;99.90
15095;DHT22;7648;52.264;9.632;2023-02-15T17:16:22;6.60;99.90
15095;DHT22;7648;52.264;9.632;2023-02-15T17:20:27;6.60;99.90
15095;DHT22;7648;52.264;9.632;2023-02-15T17:24:35;6.40;99.90
15095;DHT22;7648;52.264;9.632;2023-02-15T17:28:38;6.30;99.90
15095;DHT22;7648;52.264;9.632;2023-02-15T17:32:54;6.30;99.90
15095;DHT22;7648;52.264;9.632;2023-02-15T17:36:57;6.20;99.90
15095;DHT22;7648;52.264;9.632;2023-02-15T17:41:00;6.20;99.90
15095;DHT22;7648;52.264;9.632;2023-02-15T17:45:01;6.20;99.90
15095;DHT22;7648;52.264;9.632;2023-02-15T17:49:05;6.20;99.90
15095;DHT22;7648;52.264;9.632;2023-02-15T17:53:08;6.10;99.90
15095;DHT22;7648;52.264;9.632;2023-02-15T17:57:12;6.10;99.90
15095;DHT22;7648;52.264;9.632;2023-02-15T18:01:17;6.10;99.90
15095;DHT22;7648;52.264;9.632;2023-02-15T18:05:41;6.20;99.90
15095;DHT22;7648;52.264;9.632;2023-02-15T18:10:01;6.10;99.90
15095;DHT22;7648;52.264;9.632;2023-02-15T18:14:20;6.10;99.90
15095;DHT22;7648;52.264;9.632;2023-02-15T18:18:22;6.10;99.90
15095;DHT22;7648;52.264;9.632;2023-02-15T18:22:28;6.20;99.90
15095;DHT22;7648;52.264;9.632;2023-02-15T18:26:30;6.20;99.90
15095;DHT22;7648;52.264;9.632;2023-02-15T18:30:32;6.20;99.90
15095;DHT22;7648;52.264;9.632;2023-02-15T18:34:36;6.30;99.90
15095;DHT22;7648;52.264;9.632;2023-02-15T18:38:40;6.30;99.90
15095;DHT22;7648;52.264;9.632;2023-02-15T18:42:42;6.20;99.90
15095;DHT22;7648;52.264;9.632;2023-02-15T18:46:47;6.20;99.90
15095;DHT22;7648;52.264;9.632;2023-02-15T18:50:50;6.10;99.90
15095;DHT22;7648;52.264;9.632;2023-02-15T18:54:58;6.10;99.90
15095;DHT22;7648;52.264;9.632;2023-02-15T18:59:01;6.00;99.90
15095;DHT22;7648;52.264;9.632;2023-02-15T19:03:03;5.90;99.90
15095;DHT22;7648;52.264;9.632;2023-02-15T19:07:11;6.00;99.90
15095;DHT22;7648;52.264;9.632;2023-02-15T19:11:24;6.10;99.90
15095;DHT22;7648;52.264;9.632;2023-02-15T19:15:27;6.00;99.90
15095;DHT22;7648;52.264;9.632;2023-02-15T19:19:30;5.90;99.90
15095;DHT22;7648;52.264;9.632;2023-02-15T19:23:32;5.70;99.90
15095;DHT22;7648;52.264;9.632;2023-02-15T19:27:37;5.70;99.90
15095;DHT22;7648;52.264;9.632;2023-02-15T19:31:38;5.90;99.90
15095;DHT22;7648;52.264;9.632;2023-02-15T19:35:40;5.90;99.90
15095;DHT22;7648;52.264;9.632;2023-02-15T19:39:42;5.90;99.90
15095;DHT22;7648;52.264;9.632;2023-02-15T19:43:49;5.90;99.90
15095;DHT22;7648;52.264;9.632;2023-02-15T19:47:54;5.90;99.90
15095;DHT22;7648;52.264;9.632;2023-02-15T19:51:57;6.00;99.90
15095;DHT22;7648;52.264;9.632;2023-02-15T19:56:00;5.90;99.90
15095;DHT22;7648;52.264;9.632;2023-02-15T20:00:14;5.80;99.90
15095;DHT22;7648;52.264;9.632;2023-02-15T20:04:17;5.90;99.90
15095;DHT22;7648;52.264;9.632;2023-02-15T20:08:20;5.90;99.90
15095;DHT22;7648;52.264;9.632;2023-02-15T20:12:25;5.90;99.90
15095;DHT22;7648;52.264;9.632;2023-02-15T20:16:55;5.90;99.90
15095;DHT22;7648;52.264;9.632;2023-02-15T20:20:57;5.90;99.90
15095;DHT22;7648;52.264;9.632;2023-02-15T20:25:01;6.00;99.90
15095;DHT22;7648;52.264;9.632;2023-02-15T20:29:03;5.90;99.90
15095;DHT22;7648;52.264;9.632;2023-02-15T20:33:06;5.90;99.90
15095;DHT22;7648;52.264;9.632;2023-02-15T20:37:17;5.90;99.90
15095;DHT22;7648;52.264;9.632;2023-02-15T20:41:21;6.00;99.90
15095;DHT22;7648;52.264;9.632;2023-02-15T20:45:39;6.10;99.90
15095;DHT22;7648;52.264;9.632;2023-02-15T20:49:43;6.10;99.90
15095;DHT22;7648;52.264;9.632;2023-02-15T20:53:45;6.00;99.90
15095;DHT22;7648;52.264;9.632;2023-02-15T20:57:48;6.00;99.90
15095;DHT22;7648;52.264;9.632;2023-02-15T21:01:53;5.90;99.90
15095;DHT22;7648;52.264;9.632;2023-02-15T21:05:57;5.80;99.90
15095;DHT22;7648;52.264;9.632;2023-02-15T21:09:59;5.80;99.90
15095;DHT22;7648;52.264;9.632;2023-02-15T21:14:01;5.90;99.90
15095;DHT22;7648;52.264;9.632;2023-02-15T21:18:05;5.90;99.90
15095;DHT22;7648;52.264;9.632;2023-02-15T21:22:11;5.90;99.90
15095;DHT22;7648;52.264;9.632;2023-02-15T21:26:16;5.90;99.90
15095;DHT22;7648;52.264;9.632;2023-02-15T21:30:19;5.90;99.90
15095;DHT22;7648;52.264;9.632;2023-02-15T21:34:21;5.90;99.90
15095;DHT22;7648;52.264;9.632;2023-02-15T21:38:27;5.80;99.90
15095;DHT22;7648;52.264;9.632;2023-02-15T21:42:30;5.70;99.90
15095;DHT22;7648;52.264;9.632;2023-02-15T21:46:49;5.60;99.90
15095;DHT22;7648;52.264;9.632;2023-02-15T21:51:09;5.60;99.90
15095;DHT22;7648;52.264;9.632;2023-02-15T21:55:31;5.50;99.90
15095;DHT22;7648;52.264;9.632;2023-02-15T21:59:33;5.30;99.90
15095;DHT22;7648;52.264;9.632;2023-02-15T22:03:36;5.20;99.90
15095;DHT22;7648;52.264;9.632;2023-02-15T22:07:39;5.10;99.90
15095;DHT22;7648;52.264;9.632;2023-02-15T22:11:42;5.00;99.90
15095;DHT22;7648;52.264;9.632;2023-02-15T22:15:45;5.00;99.90
15095;DHT22;7648;52.264;9.632;2023-02-15T22:19:48;4.90;99.90
15095;DHT22;7648;52.264;9.632;2023-02-15T22:23:50;4.90;99.90
15095;DHT22;7648;52.264;9.632;2023-02-15T22:27:54;4.90;99.90
15095;DHT22;7648;52.264;9.632;2023-02-15T22:31:55;4.80;99.90
15095;DHT22;7648;52.264;9.632;2023-02-15T22:35:58;4.80;99.90
15095;DHT22;7648;52.264;9.632;2023-02-15T22:40:00;4.70;99.90
15095;DHT22;7648;52.264;9.632;2023-02-15T22:44:03;4.60;99.90
15095;DHT22;7648;52.264;9.632;2023-02-15T22:48:07;4.60;99.90
15095;DHT22;7648;52.264;9.632;2023-02-15T22:52:11;4.60;99.90
15095;DHT22;7648;52.264;9.632;2023-02-15T22:56:16;4.50;99.90
15095;DHT22;7648;52.264;9.632;2023-02-15T23:00:21;4.50;99.90
15095;DHT22;7648;52.264;9.632;2023-02-15T23:04:26;4.40;99.90
15095;DHT22;7648;52.264;9.632;2023-02-15T23:08:28;4.40;99.90
15095;DHT22;7648;52.264;9.632;2023-02-15T23:12:31;4.30;99.90
15095;DHT22;7648;52.264;9.632;2023-02-15T23:16:54;4.30;99.90
15095;DHT22;7648;52.264;9.632;2023-02-15T23:20:58;4.30;99.90
15095;DHT22;7648;52.264;9.632;2023-02-15T23:25:00;4.30;99.90
15095;DHT22;7648;52.264;9.632;2023-02-15T23:29:02;4.30;99.90
15095;DHT22;7648;52.264;9.632;2023-02-15T23:33:09;4.30;99.90
15095;DHT22;7648;52.264;9.632;2023-02-15T23:37:12;4.30;99.90
15095;DHT22;7648;52.264;9.632;2023-02-15T23:41:18;4.30;99.90
15095;DHT22;7648;52.264;9.632;2023-02-15T23:45:22;4.30;99.90
15095;DHT22;7648;52.264;9.632;2023-02-15T23:49:25;4.30;99.90
15095;DHT22;7648;52.264;9.632;2023-02-15T23:53:28;4.20;99.90
15095;DHT22;7648;52.264;9.632;2023-02-15T23:57:30;4.20;99.90
